Latest Weather Observations for Maroochydore

IDQ60801

Issued at 2:35 pm EST Thursday 24 April 2014 (issued every 30 minutes, with the page automatically refreshed every 10 minutes)

About weather observations | Map of weather stations | Latest weather observations for QLD | Other Formats
Station Details ID: 040861 Name: SUNSHINE COAST AIRPORT Lat: -26.60 Lon: 153.09 Height: 3.3 m
Data from the previous 72 hours. | See also: Recent months at Maroochydore
Date/Time
EST
Temp
°C
App
Temp
°C
Dew
Point
Rel
Hum
%
Delta-T
°C
Wind Press
QNH
hPa
Press
MSL
hPa
Rain
since 9 am
mm
Dir
 
Spd
km/h
Gust
km/h
Spd
kts
Gust
kts
24/02:00pm 25.9 26.1 19.3 67 4.2 E 17 22 9 12 1014.2 - 0.0
24/01:30pm 25.9 25.2 18.3 63 4.8 E 19 22 10 12 1014.5 - 0.0
24/01:00pm 25.9 25.8 17.8 61 5.1 E 15 20 8 11 1014.8 - 0.0
24/12:30pm 26.3 26.2 17.9 60 5.3 ESE 15 19 8 10 1015.3 - 0.0
24/12:00pm 26.8 27.3 18.4 60 5.3 E 13 19 7 10 1016.1 1016.1 0.0
24/11:30am 25.7 26.4 17.9 62 4.9 SE 11 15 6 8 1016.3 - 0.0
24/10:30am 25.4 26.0 17.8 62 4.8 S 11 15 6 8 1017.0 - 0.0
24/10:00am 25.0 25.1 17.5 63 4.7 S 13 17 7 9 1017.1 - 0.0
24/09:30am 23.4 22.6 16.2 64 4.4 S 15 20 8 11 1017.3 - 0.0
24/09:00am 21.6 22.5 16.6 73 3.0 SSW 7 13 4 7 1017.6 1017.6 0.0
24/08:30am 19.5 20.8 17.1 86 1.5 WSW 6 9 3 5 1017.5 - 0.0
24/08:00am 18.6 19.7 17.1 91 0.9 SW 7 9 4 5 1017.4 - 0.0
24/07:30am 17.3 18.2 16.2 93 0.7 WSW 6 9 3 5 1017.1 - 0.0
24/07:00am 16.9 17.7 15.8 93 0.6 SW 6 7 3 4 1017.2 - 0.0
24/06:00am 15.7 15.8 14.4 92 0.7 W 7 9 4 5 1016.1 1016.2 0.0
24/05:30am 16.0 16.2 14.7 92 0.7 WSW 7 9 4 5 1015.7 - 0.0
24/05:00am 16.1 16.3 14.8 92 0.7 WSW 7 9 4 5 1015.6 - 0.0
24/04:30am 16.6 17.0 15.3 92 0.8 SW 7 7 4 4 1015.5 - 0.0
24/04:00am 16.6 16.6 15.3 92 0.8 S 9 11 5 6 1015.5 - 0.0
24/03:00am 17.0 17.5 15.5 91 0.9 SW 7 7 4 4 1015.5 1015.5 0.0
24/02:30am 17.2 17.3 15.5 90 1.0 WSW 9 11 5 6 1015.9 - 0.0
24/02:00am 17.6 18.2 15.8 89 1.1 SW 7 9 4 5 1015.8 - 0.0
24/01:30am 18.1 18.8 16.1 88 1.2 SW 7 9 4 5 1016.1 - 0.0
24/01:00am 18.5 19.5 16.3 87 1.3 SSW 6 7 3 4 1016.4 - 0.0
 
Date/Time
EST
Temp
°C
App
Temp
°C
Dew
Point
Rel
Hum
%
Delta-T
°C
Wind Press
QNH
hPa
Press
MSL
hPa
Rain
since 9 am
mm
Dir
 
Spd
km/h
Gust
km/h
Spd
kts
Gust
kts
23/11:30pm 18.9 20.0 17.0 89 1.1 SW 7 9 4 5 1017.1 - 0.0
23/11:00pm 19.0 20.1 17.1 89 1.2 WSW 7 9 4 5 1017.3 - 0.0
23/10:30pm 19.0 19.7 17.1 89 1.2 W 9 9 5 5 1017.5 - 0.0
23/10:00pm 19.2 20.5 17.0 87 1.3 WNW 6 7 3 4 1017.6 - 0.0
23/09:30pm 19.1 19.7 16.9 87 1.3 W 9 11 5 6 1017.8 - 0.0
23/09:00pm 19.3 20.0 17.1 87 1.3 W 9 9 5 5 1017.8 1017.8 0.0
23/08:30pm 19.7 20.8 16.7 83 1.8 W 6 7 3 4 1017.8 - 0.0
23/08:00pm 20.1 21.0 16.7 81 2.1 WSW 7 9 4 5 1017.8 - 0.0
23/07:30pm 20.4 21.1 17.0 81 2.1 SW 9 11 5 6 1017.6 - 0.0
23/07:00pm 20.5 20.9 17.3 82 2.0 W 11 15 6 8 1017.5 - 0.0
23/06:30pm 21.0 21.8 17.2 79 2.3 N 9 9 5 5 1017.4 - 0.0
23/06:00pm 21.2 21.2 17.2 78 2.4 N 13 19 7 10 1017.2 1017.2 0.0
23/05:30pm 21.3 20.3 16.7 75 2.8 N 17 24 9 13 1017.1 - 0.0
23/05:00pm 22.2 21.3 16.9 72 3.2 N 17 26 9 14 1016.7 - 0.0
23/04:30pm 22.3 21.2 17.4 74 3.0 N 19 28 10 15 1016.4 - 0.0
23/04:00pm 22.6 21.2 17.9 75 2.9 N 22 30 12 16 1016.1 - 0.0
23/03:30pm 24.5 24.9 18.2 68 4.0 ENE 13 15 7 8 1016.1 - 0.0
23/03:00pm 25.6 26.2 18.5 65 4.5 E 13 17 7 9 1015.9 1015.9 0.0
23/02:30pm 25.5 25.3 17.7 62 4.9 E 15 20 8 11 1016.1 - 0.0
23/02:00pm 25.3 25.1 17.7 62 4.8 E 15 19 8 10 1016.2 - 0.0
23/01:30pm 24.9 25.3 18.1 66 4.3 ESE 13 17 7 9 1016.6 - 0.0
23/01:00pm 25.7 25.7 18.1 63 4.8 ESE 15 19 8 10 1016.7 - 0.0
23/12:30pm 25.9 26.1 18.6 64 4.6 ESE 15 17 8 9 1017.0 - 0.0
23/12:00pm 25.5 25.3 17.7 62 4.9 SE 15 17 8 9 1017.7 1017.7 0.0
23/11:30am 25.9 25.4 17.8 61 5.1 SE 17 19 9 10 1018.0 - 0.0
23/11:00am 25.2 25.7 18.4 66 4.3 ESE 13 17 7 9 1018.7 - 0.0
23/10:30am 24.8 25.4 17.8 65 4.4 SE 11 13 6 7 1019.0 - 0.0
23/10:00am 25.2 25.8 17.7 63 4.7 SSE 11 17 6 9 1019.1 - 0.0
23/09:30am 23.7 24.3 17.7 69 3.7 S 11 15 6 8 1019.4 - 0.0
23/09:00am 21.5 23.0 17.7 79 2.3 SW 6 9 3 5 1019.6 1019.6 0.2
23/08:30am 20.0 21.7 18.5 91 0.9 S 7 9 4 5 1019.7 - 0.2
23/08:00am 18.3 20.4 17.1 93 0.7 SW 2 9 1 5 1019.4 - 0.2
23/07:30am 17.4 18.3 16.6 95 0.5 SW 7 11 4 6 1019.2 - 0.2
23/07:00am 16.3 17.0 15.5 95 0.5 W 6 9 3 5 1019.6 - 0.2
23/06:30am 15.1 15.3 14.1 94 0.6 WSW 6 9 3 5 1019.1 - 0.2
23/06:00am 15.1 15.1 14.1 94 0.6 W 7 9 4 5 1018.7 1018.7 0.2
23/05:30am 15.1 15.1 14.1 94 0.6 W 7 7 4 4 1018.6 - 0.2
23/05:00am 15.2 15.2 14.2 94 0.6 W 7 11 4 6 1018.5 - 0.2
23/04:30am 14.9 14.8 13.9 94 0.6 W 7 9 4 5 1018.5 - 0.2
23/04:00am 14.9 14.4 13.9 94 0.6 W 9 9 5 5 1018.1 - 0.2
23/03:30am 15.4 15.5 14.4 94 0.6 W 7 9 4 5 1018.1 - 0.2
23/03:00am 15.2 15.2 14.2 94 0.6 W 7 9 4 5 1018.1 1018.1 0.2
23/02:30am 15.4 15.5 14.4 94 0.6 W 7 9 4 5 1018.4 - 0.2
23/02:00am 15.2 14.8 14.1 93 0.6 W 9 9 5 5 1018.4 - 0.2
23/01:30am 15.4 15.4 14.1 92 0.7 WSW 7 7 4 4 1018.5 - 0.2
23/01:00am 15.7 15.9 14.6 93 0.6 WSW 7 9 4 5 1018.8 - 0.2
23/12:30am 15.9 16.1 14.8 93 0.6 WSW 7 9 4 5 1019.0 - 0.2
23/12:00am 16.1 16.4 15.0 93 0.6 WSW 7 9 4 5 1019.2 1019.2 0.2
 
Date/Time
EST
Temp
°C
App
Temp
°C
Dew
Point
Rel
Hum
%
Delta-T
°C
Wind Press
QNH
hPa
Press
MSL
hPa
Rain
since 9 am
mm
Dir
 
Spd
km/h
Gust
km/h
Spd
kts
Gust
kts
22/11:30pm 16.0 16.2 14.7 92 0.7 W 7 9 4 5 1019.3 - 0.2
22/11:00pm 16.3 16.2 15.0 92 0.8 WNW 9 9 5 5 1019.6 - 0.2
22/10:30pm 16.6 17.1 15.1 91 0.9 W 6 7 3 4 1019.5 - 0.2
22/10:00pm 16.8 17.4 15.2 90 0.9 W 6 7 3 4 1019.6 - 0.2
22/09:30pm 16.9 17.2 15.1 89 1.0 WSW 7 9 4 5 1019.7 - 0.2
22/09:00pm 17.2 17.8 15.2 88 1.2 WSW 6 7 3 4 1020.0 1020.0 0.2
22/08:30pm 17.6 18.0 15.4 87 1.3 WSW 7 9 4 5 1020.1 - 0.2
22/08:00pm 18.3 18.9 15.7 85 1.5 WSW 7 11 4 6 1020.0 - 0.2
22/07:30pm 19.1 19.5 15.2 78 2.3 NW 7 9 4 5 1019.8 - 0.2
22/07:00pm 21.4 21.2 15.7 70 3.4 NE 11 13 6 7 1019.5 - 0.2
22/06:30pm 22.0 21.7 15.4 66 3.9 NE 11 13 6 7 1019.3 - 0.2
22/06:00pm 22.1 21.3 15.0 64 4.2 NE 13 17 7 9 1019.2 1019.2 0.2
22/05:30pm 22.5 21.9 15.6 65 4.1 ENE 13 17 7 9 1019.0 - 0.2
22/05:00pm 23.1 22.3 16.2 65 4.2 ENE 15 19 8 10 1018.8 - 0.2
22/04:30pm 24.0 23.1 15.8 60 5.0 ENE 15 19 8 10 1018.8 - 0.2
22/04:00pm 25.0 23.9 15.3 55 5.8 ENE 15 20 8 11 1018.6 - 0.2
22/03:30pm 25.0 24.3 16.4 59 5.3 ENE 15 19 8 10 1018.6 - 0.2
22/03:00pm 25.1 24.3 16.0 57 5.5 E 15 19 8 10 1018.7 1018.7 0.2
22/02:30pm 25.3 23.8 15.3 54 6.0 E 17 20 9 11 1018.8 - 0.2
22/02:00pm 25.8 24.8 15.5 53 6.2 E 15 19 8 10 1018.9 - 0.2
22/01:30pm 25.6 24.5 15.3 53 6.2 E 15 19 8 10 1018.9 - 0.2
22/01:00pm 26.0 24.9 15.4 52 6.4 E 15 19 8 10 1019.4 - 0.2
22/12:30pm 25.7 25.0 15.4 53 6.2 E 13 19 7 10 1019.9 - 0.2
22/12:00pm 25.9 25.5 16.2 55 5.9 E 13 19 7 10 1020.2 1020.2 0.2
22/11:30am 26.5 26.1 16.1 52 6.4 ESE 13 15 7 8 1020.8 - 0.2
22/11:00am 25.9 25.7 15.6 53 6.3 ESE 11 15 6 8 1021.1 - 0.2
22/10:30am 26.1 26.2 15.5 52 6.4 ENE 9 15 5 8 1021.5 - 0.2
22/10:00am 25.7 25.8 15.4 53 6.2 ESE 9 11 5 6 1021.3 - 0.2
22/09:30am 24.9 24.9 15.2 54 5.8 E 9 13 5 7 1021.5 - 0.0
22/09:00am 23.3 23.7 15.4 61 4.7 SW 7 7 4 4 1021.6 1021.6 0.0
22/08:30am 20.9 21.2 16.1 74 2.9 SW 9 9 5 5 1021.8 - 0.0
22/08:00am 19.0 19.6 16.8 87 1.3 W 9 11 5 6 1022.0 - 0.0
22/07:30am 17.2 17.9 16.1 93 0.7 W 7 9 4 5 1021.6 - 0.0
22/07:00am 15.6 15.4 14.8 95 0.5 W 9 11 5 6 1021.3 - 0.0
22/06:30am 13.7 13.3 12.9 95 0.4 W 7 9 4 5 1021.1 - 0.0
22/06:00am 13.4 12.5 12.6 95 0.4 W 9 11 5 6 1021.0 1021.0 0.0
22/05:30am 13.4 12.5 12.5 94 0.5 W 9 9 5 5 1020.7 - 0.0
22/05:00am 13.2 12.2 12.3 94 0.5 WSW 9 9 5 5 1020.6 - 0.0
22/04:30am 13.6 13.1 12.7 94 0.5 W 7 9 4 5 1020.3 - 0.0
22/04:00am 13.8 13.6 12.9 94 0.5 WSW 6 9 3 5 1020.1 - 0.0
22/03:30am 13.9 13.5 13.0 94 0.5 W 7 9 4 5 1019.9 - 0.0
22/03:00am 14.0 13.8 13.1 94 0.5 W 6 7 3 4 1020.0 1020.0 0.0
22/02:30am 14.2 13.9 13.2 94 0.6 W 7 9 4 5 1020.0 - 0.0
22/02:00am 14.3 14.2 13.2 93 0.6 WSW 6 7 3 4 1020.2 - 0.0
22/01:55am 14.5 14.5 13.5 94 0.6 W 6 9 3 5 1020.3 - 0.0
22/01:31am 14.6 14.6 13.5 93 0.6 W 6 7 3 4 1020.4 - 0.0
22/01:30am 14.6 14.6 13.5 93 0.6 W 6 7 3 4 1020.4 - 0.0
22/01:00am 14.9 14.8 13.8 93 0.6 W 7 7 4 4 1020.4 - 0.0
22/12:30am 14.7 14.5 13.6 93 0.6 W 7 9 4 5 1020.6 - 0.0
22/12:00am 15.1 15.0 14.0 93 0.6 W 7 9 4 5 1020.8 1020.8 0.0
 
Date/Time
EST
Temp
°C
App
Temp
°C
Dew
Point
Rel
Hum
%
Delta-T
°C
Wind Press
QNH
hPa
Press
MSL
hPa
Rain
since 9 am
mm
Dir
 
Spd
km/h
Gust
km/h
Spd
kts
Gust
kts
21/11:30pm 15.2 15.3 13.9 92 0.7 WSW 6 7 3 4 1020.9 - 0.0
21/11:00pm 15.8 15.9 14.5 92 0.7 WSW 7 9 4 5 1021.2 - 0.0
21/10:30pm 16.0 16.2 14.7 92 0.7 W 7 9 4 5 1021.2 - 0.0
21/10:00pm 16.3 16.7 14.8 91 0.9 W 6 9 3 5 1021.1 - 0.0
21/09:30pm 16.9 17.4 15.6 92 0.8 W 7 11 4 6 1021.1 - 0.0
21/09:00pm 16.8 17.2 15.2 90 0.9 W 7 9 4 5 1021.0 1021.0 0.0
21/08:30pm 17.2 17.3 15.4 89 1.1 WNW 9 9 5 5 1020.9 - 0.0
21/08:00pm 18.0 18.1 15.4 85 1.5 NW 9 11 5 6 1020.8 - 0.0
21/07:30pm 19.3 19.4 15.4 78 2.3 N 9 13 5 7 1020.5 - 0.0
21/07:00pm 21.2 20.5 15.5 70 3.4 NNE 13 17 7 9 1020.2 - 0.0
21/06:30pm 22.5 21.2 15.8 66 4.0 NNE 17 20 9 11 1019.9 - 0.0
21/06:00pm 22.1 20.8 15.9 68 3.7 NNE 17 20 9 11 1019.5 1019.5 0.0
21/05:30pm 22.8 21.2 16.1 66 4.1 NNE 19 22 10 12 1019.1 - 0.0
21/05:00pm 23.5 22.2 16.8 66 4.1 NNE 19 22 10 12 1019.0 - 0.0
21/04:30pm 24.5 23.3 17.0 63 4.6 NNE 19 24 10 13 1018.6 - 0.0
21/04:00pm 25.3 23.9 17.0 60 5.1 NNE 20 26 11 14 1018.6 - 0.0
21/03:30pm 25.7 24.0 16.3 56 5.8 NNE 20 26 11 14 1018.4 - 0.0
21/03:00pm 26.4 24.8 16.6 55 6.0 NE 20 26 11 14 1018.5 1018.5 0.0

Other Formats:

Comma delimited format used in spreadsheet applications
http://www.bom.gov.au/fwo/IDQ60801/IDQ60801.94569.axf

JavaScript Object Notation format (JSON) in row-major order
http://www.bom.gov.au/fwo/IDQ60801/IDQ60801.94569.json